sensor_id;sensor_type;location;lat;lon;timestamp;P1;durP1;ratioP1;P2;durP2;ratioP2
12312;SDS011;6220;53.580;9.758;2023-03-23T00:00:46;9.50;;;7.57;;
12312;SDS011;6220;53.580;9.758;2023-03-23T00:03:11;12.07;;;8.30;;
12312;SDS011;6220;53.580;9.758;2023-03-23T00:05:38;9.83;;;7.97;;
12312;SDS011;6220;53.580;9.758;2023-03-23T00:08:06;12.93;;;9.27;;
12312;SDS011;6220;53.580;9.758;2023-03-23T00:10:34;16.90;;;9.13;;
12312;SDS011;6220;53.580;9.758;2023-03-23T00:13:00;11.30;;;9.23;;
12312;SDS011;6220;53.580;9.758;2023-03-23T00:15:29;14.53;;;10.37;;
12312;SDS011;6220;53.580;9.758;2023-03-23T00:17:58;12.50;;;10.60;;
12312;SDS011;6220;53.580;9.758;2023-03-23T00:20:30;12.33;;;9.87;;
12312;SDS011;6220;53.580;9.758;2023-03-23T00:23:04;13.00;;;9.93;;
12312;SDS011;6220;53.580;9.758;2023-03-23T00:25:30;13.87;;;10.37;;
12312;SDS011;6220;53.580;9.758;2023-03-23T00:27:55;13.27;;;10.70;;
12312;SDS011;6220;53.580;9.758;2023-03-23T00:30:21;11.90;;;10.70;;
12312;SDS011;6220;53.580;9.758;2023-03-23T00:32:47;12.37;;;11.10;;
12312;SDS011;6220;53.580;9.758;2023-03-23T00:35:13;13.80;;;11.90;;
12312;SDS011;6220;53.580;9.758;2023-03-23T00:37:38;14.60;;;12.93;;
12312;SDS011;6220;53.580;9.758;2023-03-23T00:40:04;17.37;;;13.73;;
12312;SDS011;6220;53.580;9.758;2023-03-23T00:42:34;17.23;;;13.50;;
12312;SDS011;6220;53.580;9.758;2023-03-23T00:45:03;14.67;;;13.17;;
12312;SDS011;6220;53.580;9.758;2023-03-23T00:47:35;14.63;;;13.23;;
12312;SDS011;6220;53.580;9.758;2023-03-23T00:50:01;14.33;;;12.83;;
12312;SDS011;6220;53.580;9.758;2023-03-23T00:52:27;15.87;;;14.23;;
12312;SDS011;6220;53.580;9.758;2023-03-23T00:54:53;15.37;;;13.70;;
12312;SDS011;6220;53.580;9.758;2023-03-23T00:57:18;15.67;;;13.67;;
12312;SDS011;6220;53.580;9.758;2023-03-23T00:59:43;15.17;;;13.67;;
12312;SDS011;6220;53.580;9.758;2023-03-23T01:02:09;15.33;;;13.80;;
12312;SDS011;6220;53.580;9.758;2023-03-23T01:04:34;15.10;;;13.57;;
12312;SDS011;6220;53.580;9.758;2023-03-23T01:07:03;14.50;;;13.00;;
12312;SDS011;6220;53.580;9.758;2023-03-23T01:09:29;15.53;;;14.07;;
12312;SDS011;6220;53.580;9.758;2023-03-23T01:11:55;15.30;;;13.90;;
12312;SDS011;6220;53.580;9.758;2023-03-23T01:14:21;15.90;;;14.10;;
12312;SDS011;6220;53.580;9.758;2023-03-23T01:16:46;16.80;;;14.97;;
12312;SDS011;6220;53.580;9.758;2023-03-23T01:19:12;15.37;;;13.73;;
12312;SDS011;6220;53.580;9.758;2023-03-23T01:21:37;16.13;;;14.53;;
12312;SDS011;6220;53.580;9.758;2023-03-23T01:24:03;16.37;;;14.77;;
12312;SDS011;6220;53.580;9.758;2023-03-23T01:26:29;16.50;;;14.80;;
12312;SDS011;6220;53.580;9.758;2023-03-23T01:28:55;17.10;;;14.43;;
12312;SDS011;6220;53.580;9.758;2023-03-23T01:31:22;15.57;;;14.00;;
12312;SDS011;6220;53.580;9.758;2023-03-23T01:33:49;16.07;;;14.37;;
12312;SDS011;6220;53.580;9.758;2023-03-23T01:36:20;15.77;;;13.83;;
12312;SDS011;6220;53.580;9.758;2023-03-23T01:38:47;16.10;;;14.50;;
12312;SDS011;6220;53.580;9.758;2023-03-23T01:41:14;17.40;;;15.53;;
12312;SDS011;6220;53.580;9.758;2023-03-23T01:44:01;17.67;;;15.80;;
12312;SDS011;6220;53.580;9.758;2023-03-23T01:46:34;17.23;;;14.87;;
12312;SDS011;6220;53.580;9.758;2023-03-23T01:49:06;17.10;;;15.20;;
12312;SDS011;6220;53.580;9.758;2023-03-23T01:51:48;17.00;;;15.30;;
12312;SDS011;6220;53.580;9.758;2023-03-23T01:54:15;18.73;;;15.57;;
12312;SDS011;6220;53.580;9.758;2023-03-23T01:56:48;17.60;;;15.73;;
12312;SDS011;6220;53.580;9.758;2023-03-23T01:59:17;19.83;;;17.50;;
12312;SDS011;6220;53.580;9.758;2023-03-23T02:01:42;18.20;;;16.30;;
12312;SDS011;6220;53.580;9.758;2023-03-23T02:04:11;19.90;;;16.73;;
12312;SDS011;6220;53.580;9.758;2023-03-23T02:06:37;18.33;;;16.43;;
12312;SDS011;6220;53.580;9.758;2023-03-23T02:09:03;20.20;;;17.30;;
12312;SDS011;6220;53.580;9.758;2023-03-23T02:11:31;18.93;;;17.00;;
12312;SDS011;6220;53.580;9.758;2023-03-23T02:13:57;18.67;;;16.67;;
12312;SDS011;6220;53.580;9.758;2023-03-23T02:19:07;17.97;;;16.17;;
12312;SDS011;6220;53.580;9.758;2023-03-23T02:27:11;16.00;;;14.30;;
12312;SDS011;6220;53.580;9.758;2023-03-23T02:34:58;17.03;;;15.00;;
12312;SDS011;6220;53.580;9.758;2023-03-23T02:37:35;17.13;;;14.93;;
12312;SDS011;6220;53.580;9.758;2023-03-23T02:40:07;15.87;;;14.40;;
12312;SDS011;6220;53.580;9.758;2023-03-23T02:42:39;16.40;;;14.77;;
12312;SDS011;6220;53.580;9.758;2023-03-23T02:45:07;15.50;;;13.90;;
12312;SDS011;6220;53.580;9.758;2023-03-23T02:47:34;15.77;;;14.10;;
12312;SDS011;6220;53.580;9.758;2023-03-23T02:50:00;16.87;;;14.73;;
12312;SDS011;6220;53.580;9.758;2023-03-23T02:52:27;16.67;;;14.57;;
12312;SDS011;6220;53.580;9.758;2023-03-23T02:54:55;15.40;;;13.97;;
12312;SDS011;6220;53.580;9.758;2023-03-23T02:57:22;20.73;;;15.17;;
12312;SDS011;6220;53.580;9.758;2023-03-23T02:59:48;15.00;;;13.43;;
12312;SDS011;6220;53.580;9.758;2023-03-23T03:02:14;16.17;;;14.37;;
12312;SDS011;6220;53.580;9.758;2023-03-23T03:04:45;16.80;;;14.07;;
12312;SDS011;6220;53.580;9.758;2023-03-23T03:10:02;16.47;;;14.10;;
12312;SDS011;6220;53.580;9.758;2023-03-23T03:18:06;15.90;;;13.50;;
12312;SDS011;6220;53.580;9.758;2023-03-23T03:20:44;15.17;;;13.57;;
12312;SDS011;6220;53.580;9.758;2023-03-23T03:23:12;14.40;;;12.90;;
12312;SDS011;6220;53.580;9.758;2023-03-23T03:25:40;14.17;;;12.77;;
12312;SDS011;6220;53.580;9.758;2023-03-23T03:28:07;14.70;;;13.30;;
12312;SDS011;6220;53.580;9.758;2023-03-23T03:30:33;20.37;;;13.83;;
12312;SDS011;6220;53.580;9.758;2023-03-23T03:33:00;15.00;;;13.50;;
12312;SDS011;6220;53.580;9.758;2023-03-23T03:35:28;16.00;;;13.50;;
12312;SDS011;6220;53.580;9.758;2023-03-23T03:37:54;15.80;;;13.50;;
12312;SDS011;6220;53.580;9.758;2023-03-23T03:40:20;14.73;;;13.33;;
12312;SDS011;6220;53.580;9.758;2023-03-23T03:42:47;14.60;;;13.00;;
12312;SDS011;6220;53.580;9.758;2023-03-23T03:45:13;14.77;;;13.40;;
12312;SDS011;6220;53.580;9.758;2023-03-23T03:47:41;14.63;;;13.17;;
12312;SDS011;6220;53.580;9.758;2023-03-23T03:50:06;14.90;;;13.40;;
12312;SDS011;6220;53.580;9.758;2023-03-23T03:52:32;13.93;;;12.53;;
12312;SDS011;6220;53.580;9.758;2023-03-23T03:54:58;14.23;;;12.67;;
12312;SDS011;6220;53.580;9.758;2023-03-23T03:57:23;14.70;;;12.50;;
12312;SDS011;6220;53.580;9.758;2023-03-23T03:59:49;14.70;;;12.93;;
12312;SDS011;6220;53.580;9.758;2023-03-23T04:02:15;15.90;;;13.43;;
12312;SDS011;6220;53.580;9.758;2023-03-23T04:04:44;14.93;;;13.37;;
12312;SDS011;6220;53.580;9.758;2023-03-23T04:07:11;16.33;;;13.70;;
12312;SDS011;6220;53.580;9.758;2023-03-23T04:09:38;14.33;;;12.80;;
12312;SDS011;6220;53.580;9.758;2023-03-23T04:12:04;15.67;;;14.07;;
12312;SDS011;6220;53.580;9.758;2023-03-23T04:14:30;15.23;;;12.10;;
12312;SDS011;6220;53.580;9.758;2023-03-23T04:16:56;13.70;;;12.30;;
12312;SDS011;6220;53.580;9.758;2023-03-23T04:19:22;15.07;;;13.53;;
12312;SDS011;6220;53.580;9.758;2023-03-23T04:21:48;14.20;;;12.70;;
12312;SDS011;6220;53.580;9.758;2023-03-23T04:24:14;14.60;;;13.13;;
12312;SDS011;6220;53.580;9.758;2023-03-23T04:26:40;14.17;;;12.77;;
12312;SDS011;6220;53.580;9.758;2023-03-23T04:29:07;16.07;;;12.20;;
12312;SDS011;6220;53.580;9.758;2023-03-23T04:31:33;15.23;;;12.23;;
12312;SDS011;6220;53.580;9.758;2023-03-23T04:33:59;13.10;;;11.70;;
12312;SDS011;6220;53.580;9.758;2023-03-23T04:36:26;13.50;;;12.10;;
12312;SDS011;6220;53.580;9.758;2023-03-23T04:38:53;14.43;;;12.77;;
12312;SDS011;6220;53.580;9.758;2023-03-23T04:41:21;14.60;;;11.77;;
12312;SDS011;6220;53.580;9.758;2023-03-23T04:43:47;15.83;;;12.97;;
12312;SDS011;6220;53.580;9.758;2023-03-23T04:46:17;14.80;;;12.20;;
12312;SDS011;6220;53.580;9.758;2023-03-23T04:48:43;13.30;;;12.00;;
12312;SDS011;6220;53.580;9.758;2023-03-23T04:51:08;13.20;;;11.87;;
12312;SDS011;6220;53.580;9.758;2023-03-23T04:53:33;13.87;;;12.47;;
12312;SDS011;6220;53.580;9.758;2023-03-23T04:55:59;14.70;;;13.20;;
12312;SDS011;6220;53.580;9.758;2023-03-23T04:58:26;13.77;;;12.43;;
12312;SDS011;6220;53.580;9.758;2023-03-23T05:00:54;15.53;;;12.67;;
12312;SDS011;6220;53.580;9.758;2023-03-23T05:03:20;13.87;;;12.47;;
12312;SDS011;6220;53.580;9.758;2023-03-23T05:05:46;14.67;;;12.83;;
12312;SDS011;6220;53.580;9.758;2023-03-23T05:08:17;14.00;;;12.43;;
12312;SDS011;6220;53.580;9.758;2023-03-23T05:10:54;13.93;;;12.50;;
12312;SDS011;6220;53.580;9.758;2023-03-23T05:13:20;14.70;;;12.97;;
12312;SDS011;6220;53.580;9.758;2023-03-23T05:15:46;15.93;;;12.60;;
12312;SDS011;6220;53.580;9.758;2023-03-23T05:18:12;13.80;;;12.50;;
12312;SDS011;6220;53.580;9.758;2023-03-23T05:20:38;18.60;;;13.07;;
12312;SDS011;6220;53.580;9.758;2023-03-23T05:23:04;14.43;;;12.97;;
12312;SDS011;6220;53.580;9.758;2023-03-23T05:25:29;15.13;;;13.50;;
12312;SDS011;6220;53.580;9.758;2023-03-23T05:27:55;14.70;;;12.93;;
12312;SDS011;6220;53.580;9.758;2023-03-23T05:30:20;14.50;;;13.00;;
12312;SDS011;6220;53.580;9.758;2023-03-23T05:32:46;14.73;;;13.23;;
12312;SDS011;6220;53.580;9.758;2023-03-23T05:35:18;14.00;;;12.53;;
12312;SDS011;6220;53.580;9.758;2023-03-23T05:37:44;13.53;;;12.23;;
12312;SDS011;6220;53.580;9.758;2023-03-23T05:40:10;14.27;;;12.53;;
12312;SDS011;6220;53.580;9.758;2023-03-23T05:42:37;14.37;;;12.60;;
12312;SDS011;6220;53.580;9.758;2023-03-23T05:45:06;14.90;;;12.43;;
12312;SDS011;6220;53.580;9.758;2023-03-23T05:47:33;13.27;;;11.87;;
12312;SDS011;6220;53.580;9.758;2023-03-23T05:49:59;13.43;;;12.03;;
12312;SDS011;6220;53.580;9.758;2023-03-23T05:52:25;14.90;;;12.63;;
12312;SDS011;6220;53.580;9.758;2023-03-23T05:54:51;13.10;;;11.80;;
12312;SDS011;6220;53.580;9.758;2023-03-23T05:57:16;13.50;;;12.03;;
12312;SDS011;6220;53.580;9.758;2023-03-23T05:59:43;16.97;;;12.83;;
12312;SDS011;6220;53.580;9.758;2023-03-23T06:02:08;15.60;;;12.03;;
12312;SDS011;6220;53.580;9.758;2023-03-23T06:04:35;13.43;;;11.33;;
12312;SDS011;6220;53.580;9.758;2023-03-23T06:07:00;12.13;;;10.53;;
12312;SDS011;6220;53.580;9.758;2023-03-23T06:09:27;11.93;;;10.70;;
12312;SDS011;6220;53.580;9.758;2023-03-23T06:11:52;12.53;;;10.00;;
12312;SDS011;6220;53.580;9.758;2023-03-23T06:14:18;11.30;;;10.10;;
12312;SDS011;6220;53.580;9.758;2023-03-23T06:16:43;12.03;;;9.90;;
12312;SDS011;6220;53.580;9.758;2023-03-23T06:19:09;12.10;;;9.70;;
12312;SDS011;6220;53.580;9.758;2023-03-23T06:21:36;10.30;;;9.20;;
12312;SDS011;6220;53.580;9.758;2023-03-23T06:24:02;10.60;;;9.50;;
12312;SDS011;6220;53.580;9.758;2023-03-23T06:26:30;11.23;;;9.17;;
12312;SDS011;6220;53.580;9.758;2023-03-23T06:28:57;10.17;;;9.17;;
12312;SDS011;6220;53.580;9.758;2023-03-23T06:31:23;10.17;;;7.90;;
12312;SDS011;6220;53.580;9.758;2023-03-23T06:33:49;9.53;;;8.47;;
12312;SDS011;6220;53.580;9.758;2023-03-23T06:36:16;9.73;;;8.70;;
12312;SDS011;6220;53.580;9.758;2023-03-23T06:38:41;9.63;;;7.93;;
12312;SDS011;6220;53.580;9.758;2023-03-23T06:41:07;10.47;;;8.07;;
12312;SDS011;6220;53.580;9.758;2023-03-23T06:43:33;10.03;;;8.10;;
12312;SDS011;6220;53.580;9.758;2023-03-23T06:46:00;10.33;;;8.07;;
12312;SDS011;6220;53.580;9.758;2023-03-23T06:48:26;7.73;;;6.87;;
12312;SDS011;6220;53.580;9.758;2023-03-23T06:50:52;9.30;;;6.87;;
12312;SDS011;6220;53.580;9.758;2023-03-23T06:53:17;8.03;;;6.73;;
12312;SDS011;6220;53.580;9.758;2023-03-23T06:55:45;8.73;;;6.57;;
12312;SDS011;6220;53.580;9.758;2023-03-23T06:58:10;7.97;;;6.90;;
12312;SDS011;6220;53.580;9.758;2023-03-23T07:00:36;9.10;;;6.60;;
12312;SDS011;6220;53.580;9.758;2023-03-23T07:03:01;7.77;;;5.80;;
12312;SDS011;6220;53.580;9.758;2023-03-23T07:05:27;8.23;;;6.40;;
12312;SDS011;6220;53.580;9.758;2023-03-23T07:07:53;8.13;;;5.87;;
12312;SDS011;6220;53.580;9.758;2023-03-23T07:10:18;8.30;;;5.77;;
12312;SDS011;6220;53.580;9.758;2023-03-23T07:12:44;9.50;;;6.13;;
12312;SDS011;6220;53.580;9.758;2023-03-23T07:15:09;7.77;;;5.80;;
12312;SDS011;6220;53.580;9.758;2023-03-23T07:17:36;7.27;;;5.50;;
12312;SDS011;6220;53.580;9.758;2023-03-23T07:20:02;7.47;;;5.20;;
12312;SDS011;6220;53.580;9.758;2023-03-23T07:22:29;9.83;;;5.53;;
12312;SDS011;6220;53.580;9.758;2023-03-23T07:24:55;6.57;;;5.30;;
12312;SDS011;6220;53.580;9.758;2023-03-23T07:27:20;8.97;;;5.77;;
12312;SDS011;6220;53.580;9.758;2023-03-23T07:29:45;7.27;;;4.30;;
12312;SDS011;6220;53.580;9.758;2023-03-23T07:32:11;7.13;;;5.40;;
12312;SDS011;6220;53.580;9.758;2023-03-23T07:34:37;5.30;;;4.70;;
12312;SDS011;6220;53.580;9.758;2023-03-23T07:37:03;9.80;;;5.60;;
12312;SDS011;6220;53.580;9.758;2023-03-23T07:39:28;6.53;;;5.83;;
12312;SDS011;6220;53.580;9.758;2023-03-23T07:41:54;9.03;;;6.10;;
12312;SDS011;6220;53.580;9.758;2023-03-23T07:44:20;10.80;;;6.50;;
12312;SDS011;6220;53.580;9.758;2023-03-23T07:46:45;8.23;;;6.13;;
12312;SDS011;6220;53.580;9.758;2023-03-23T07:49:11;8.20;;;6.53;;
12312;SDS011;6220;53.580;9.758;2023-03-23T07:51:37;9.70;;;6.10;;
12312;SDS011;6220;53.580;9.758;2023-03-23T07:54:04;11.27;;;7.07;;
12312;SDS011;6220;53.580;9.758;2023-03-23T07:56:32;7.60;;;6.70;;
12312;SDS011;6220;53.580;9.758;2023-03-23T07:58:57;6.27;;;4.70;;
12312;SDS011;6220;53.580;9.758;2023-03-23T08:01:23;5.57;;;4.10;;
12312;SDS011;6220;53.580;9.758;2023-03-23T08:03:49;7.07;;;3.10;;
12312;SDS011;6220;53.580;9.758;2023-03-23T08:06:15;4.57;;;2.20;;
12312;SDS011;6220;53.580;9.758;2023-03-23T08:08:40;4.77;;;2.17;;
12312;SDS011;6220;53.580;9.758;2023-03-23T08:11:06;4.57;;;1.83;;
12312;SDS011;6220;53.580;9.758;2023-03-23T08:13:31;3.90;;;2.03;;
12312;SDS011;6220;53.580;9.758;2023-03-23T08:15:58;4.37;;;2.60;;
12312;SDS011;6220;53.580;9.758;2023-03-23T08:18:25;3.00;;;2.63;;
12312;SDS011;6220;53.580;9.758;2023-03-23T08:20:51;6.63;;;3.03;;
12312;SDS011;6220;53.580;9.758;2023-03-23T08:23:17;5.07;;;3.23;;
12312;SDS011;6220;53.580;9.758;2023-03-23T08:25:43;5.67;;;3.20;;
12312;SDS011;6220;53.580;9.758;2023-03-23T08:28:08;4.47;;;2.77;;
12312;SDS011;6220;53.580;9.758;2023-03-23T08:30:34;5.00;;;2.37;;
12312;SDS011;6220;53.580;9.758;2023-03-23T08:33:01;3.87;;;2.77;;
12312;SDS011;6220;53.580;9.758;2023-03-23T08:35:27;6.40;;;2.73;;
12312;SDS011;6220;53.580;9.758;2023-03-23T08:37:53;2.90;;;2.40;;
12312;SDS011;6220;53.580;9.758;2023-03-23T08:40:20;6.07;;;2.67;;
12312;SDS011;6220;53.580;9.758;2023-03-23T08:42:47;3.63;;;2.63;;
12312;SDS011;6220;53.580;9.758;2023-03-23T08:45:14;3.87;;;2.03;;
12312;SDS011;6220;53.580;9.758;2023-03-23T08:47:43;4.97;;;1.93;;
12312;SDS011;6220;53.580;9.758;2023-03-23T08:50:11;4.00;;;2.33;;
12312;SDS011;6220;53.580;9.758;2023-03-23T08:52:38;4.53;;;2.17;;
12312;SDS011;6220;53.580;9.758;2023-03-23T08:55:04;5.37;;;2.20;;
12312;SDS011;6220;53.580;9.758;2023-03-23T08:57:30;4.13;;;2.30;;
12312;SDS011;6220;53.580;9.758;2023-03-23T08:59:55;4.80;;;2.53;;
12312;SDS011;6220;53.580;9.758;2023-03-23T09:02:25;4.70;;;2.57;;
12312;SDS011;6220;53.580;9.758;2023-03-23T09:04:51;4.87;;;2.63;;
12312;SDS011;6220;53.580;9.758;2023-03-23T09:07:17;7.40;;;3.03;;
12312;SDS011;6220;53.580;9.758;2023-03-23T09:09:43;7.13;;;3.13;;
12312;SDS011;6220;53.580;9.758;2023-03-23T09:12:09;5.97;;;3.40;;
12312;SDS011;6220;53.580;9.758;2023-03-23T09:14:35;6.07;;;3.00;;
12312;SDS011;6220;53.580;9.758;2023-03-23T09:17:02;8.47;;;3.37;;
12312;SDS011;6220;53.580;9.758;2023-03-23T09:19:28;6.97;;;2.87;;
12312;SDS011;6220;53.580;9.758;2023-03-23T09:21:54;6.93;;;2.90;;
12312;SDS011;6220;53.580;9.758;2023-03-23T09:24:19;5.13;;;2.33;;
12312;SDS011;6220;53.580;9.758;2023-03-23T09:26:45;8.50;;;3.27;;
12312;SDS011;6220;53.580;9.758;2023-03-23T09:29:11;9.90;;;3.20;;
12312;SDS011;6220;53.580;9.758;2023-03-23T09:31:37;5.73;;;2.90;;
12312;SDS011;6220;53.580;9.758;2023-03-23T09:34:04;10.13;;;2.80;;
12312;SDS011;6220;53.580;9.758;2023-03-23T09:36:31;11.03;;;3.07;;
12312;SDS011;6220;53.580;9.758;2023-03-23T09:38:56;7.67;;;2.83;;
12312;SDS011;6220;53.580;9.758;2023-03-23T09:50:21;8.93;;;2.93;;
12312;SDS011;6220;53.580;9.758;2023-03-23T09:52:55;6.63;;;2.60;;
12312;SDS011;6220;53.580;9.758;2023-03-23T09:55:22;9.10;;;3.20;;
12312;SDS011;6220;53.580;9.758;2023-03-23T10:00:30;8.90;;;2.87;;
12312;SDS011;6220;53.580;9.758;2023-03-23T10:03:00;9.30;;;3.13;;
12312;SDS011;6220;53.580;9.758;2023-03-23T10:05:50;10.97;;;3.27;;
12312;SDS011;6220;53.580;9.758;2023-03-23T10:08:18;11.63;;;3.17;;
12312;SDS011;6220;53.580;9.758;2023-03-23T10:11:04;13.10;;;3.93;;
12312;SDS011;6220;53.580;9.758;2023-03-23T10:17:02;10.70;;;2.97;;
12312;SDS011;6220;53.580;9.758;2023-03-23T10:22:15;11.47;;;3.00;;
12312;SDS011;6220;53.580;9.758;2023-03-23T10:24:49;7.20;;;3.00;;
12312;SDS011;6220;53.580;9.758;2023-03-23T10:27:30;12.30;;;3.20;;
12312;SDS011;6220;53.580;9.758;2023-03-23T10:30:03;11.90;;;3.33;;
12312;SDS011;6220;53.580;9.758;2023-03-23T10:35:26;11.87;;;3.43;;
12312;SDS011;6220;53.580;9.758;2023-03-23T10:37:56;9.93;;;3.17;;
12312;SDS011;6220;53.580;9.758;2023-03-23T10:40:26;11.03;;;3.40;;
12312;SDS011;6220;53.580;9.758;2023-03-23T10:42:54;10.43;;;3.17;;
12312;SDS011;6220;53.580;9.758;2023-03-23T10:45:29;9.93;;;3.20;;
12312;SDS011;6220;53.580;9.758;2023-03-23T10:50:51;8.70;;;3.50;;
12312;SDS011;6220;53.580;9.758;2023-03-23T10:53:20;14.23;;;3.93;;
12312;SDS011;6220;53.580;9.758;2023-03-23T10:55:48;10.33;;;3.10;;
12312;SDS011;6220;53.580;9.758;2023-03-23T10:58:30;10.73;;;3.70;;
12312;SDS011;6220;53.580;9.758;2023-03-23T11:01:00;9.80;;;3.40;;
12312;SDS011;6220;53.580;9.758;2023-03-23T11:03:33;13.20;;;3.30;;
12312;SDS011;6220;53.580;9.758;2023-03-23T11:06:08;14.77;;;4.00;;
12312;SDS011;6220;53.580;9.758;2023-03-23T11:13:57;13.40;;;3.53;;
12312;SDS011;6220;53.580;9.758;2023-03-23T11:16:30;14.73;;;4.27;;
12312;SDS011;6220;53.580;9.758;2023-03-23T11:18:59;13.97;;;3.40;;
12312;SDS011;6220;53.580;9.758;2023-03-23T11:21:25;13.33;;;3.60;;
12312;SDS011;6220;53.580;9.758;2023-03-23T11:23:53;13.67;;;3.80;;
12312;SDS011;6220;53.580;9.758;2023-03-23T11:26:24;16.23;;;3.77;;
12312;SDS011;6220;53.580;9.758;2023-03-23T11:31:35;13.47;;;3.87;;
12312;SDS011;6220;53.580;9.758;2023-03-23T11:36:49;13.50;;;3.60;;
12312;SDS011;6220;53.580;9.758;2023-03-23T11:39:19;16.20;;;3.77;;
12312;SDS011;6220;53.580;9.758;2023-03-23T11:41:52;12.93;;;3.53;;
12312;SDS011;6220;53.580;9.758;2023-03-23T11:44:20;12.47;;;3.50;;
12312;SDS011;6220;53.580;9.758;2023-03-23T11:50:08;14.93;;;3.63;;
12312;SDS011;6220;53.580;9.758;2023-03-23T11:52:43;9.80;;;3.77;;
12312;SDS011;6220;53.580;9.758;2023-03-23T11:55:14;12.37;;;3.47;;
12312;SDS011;6220;53.580;9.758;2023-03-23T11:57:42;13.37;;;3.87;;
12312;SDS011;6220;53.580;9.758;2023-03-23T12:00:15;12.97;;;3.90;;
12312;SDS011;6220;53.580;9.758;2023-03-23T12:02:56;12.07;;;3.57;;
12312;SDS011;6220;53.580;9.758;2023-03-23T12:05:37;13.40;;;3.93;;
12312;SDS011;6220;53.580;9.758;2023-03-23T12:16:35;9.17;;;3.00;;
12312;SDS011;6220;53.580;9.758;2023-03-23T12:19:20;11.97;;;3.30;;
12312;SDS011;6220;53.580;9.758;2023-03-23T12:21:57;6.87;;;2.97;;
12312;SDS011;6220;53.580;9.758;2023-03-23T12:27:00;8.80;;;4.07;;
12312;SDS011;6220;53.580;9.758;2023-03-23T12:29:51;12.90;;;3.90;;
12312;SDS011;6220;53.580;9.758;2023-03-23T12:32:42;9.27;;;3.73;;
12312;SDS011;6220;53.580;9.758;2023-03-23T12:35:14;8.47;;;3.87;;
12312;SDS011;6220;53.580;9.758;2023-03-23T12:48:39;14.33;;;4.63;;
12312;SDS011;6220;53.580;9.758;2023-03-23T12:53:51;10.43;;;4.10;;
12312;SDS011;6220;53.580;9.758;2023-03-23T12:56:23;12.17;;;3.90;;
12312;SDS011;6220;53.580;9.758;2023-03-23T12:58:59;10.37;;;3.63;;
12312;SDS011;6220;53.580;9.758;2023-03-23T13:01:30;10.90;;;3.60;;
12312;SDS011;6220;53.580;9.758;2023-03-23T13:04:14;10.67;;;3.67;;
12312;SDS011;6220;53.580;9.758;2023-03-23T13:06:49;13.60;;;4.20;;
12312;SDS011;6220;53.580;9.758;2023-03-23T13:11:41;7.33;;;3.20;;
12312;SDS011;6220;53.580;9.758;2023-03-23T13:24:41;9.23;;;3.40;;
12312;SDS011;6220;53.580;9.758;2023-03-23T13:27:22;7.20;;;2.97;;
12312;SDS011;6220;53.580;9.758;2023-03-23T13:29:49;7.77;;;2.57;;
12312;SDS011;6220;53.580;9.758;2023-03-23T13:32:15;7.27;;;3.07;;
12312;SDS011;6220;53.580;9.758;2023-03-23T13:34:43;6.97;;;2.70;;
12312;SDS011;6220;53.580;9.758;2023-03-23T13:37:19;8.37;;;3.73;;
12312;SDS011;6220;53.580;9.758;2023-03-23T13:39:50;9.27;;;3.80;;
12312;SDS011;6220;53.580;9.758;2023-03-23T13:42:21;9.23;;;2.93;;
12312;SDS011;6220;53.580;9.758;2023-03-23T13:52:38;3.43;;;1.47;;
12312;SDS011;6220;53.580;9.758;2023-03-23T13:57:51;7.30;;;1.90;;
12312;SDS011;6220;53.580;9.758;2023-03-23T14:00:44;4.47;;;2.17;;
12312;SDS011;6220;53.580;9.758;2023-03-23T14:05:41;5.90;;;2.20;;
12312;SDS011;6220;53.580;9.758;2023-03-23T14:13:24;8.27;;;2.80;;
12312;SDS011;6220;53.580;9.758;2023-03-23T14:15:58;5.43;;;2.60;;
12312;SDS011;6220;53.580;9.758;2023-03-23T14:18:48;7.83;;;2.07;;
12312;SDS011;6220;53.580;9.758;2023-03-23T14:21:21;4.17;;;2.10;;
12312;SDS011;6220;53.580;9.758;2023-03-23T14:24:10;4.90;;;1.80;;
12312;SDS011;6220;53.580;9.758;2023-03-23T14:26:38;3.37;;;1.87;;
12312;SDS011;6220;53.580;9.758;2023-03-23T14:29:05;4.80;;;1.80;;
12312;SDS011;6220;53.580;9.758;2023-03-23T14:31:31;4.87;;;1.80;;
12312;SDS011;6220;53.580;9.758;2023-03-23T14:34:01;5.63;;;1.93;;
12312;SDS011;6220;53.580;9.758;2023-03-23T14:36:29;5.50;;;1.80;;
12312;SDS011;6220;53.580;9.758;2023-03-23T14:41:36;5.67;;;2.47;;
12312;SDS011;6220;53.580;9.758;2023-03-23T14:44:03;6.83;;;1.73;;
12312;SDS011;6220;53.580;9.758;2023-03-23T14:46:29;4.67;;;2.03;;
12312;SDS011;6220;53.580;9.758;2023-03-23T14:48:55;7.80;;;2.07;;
12312;SDS011;6220;53.580;9.758;2023-03-23T14:51:21;7.50;;;2.10;;
12312;SDS011;6220;53.580;9.758;2023-03-23T14:53:47;3.83;;;1.63;;
12312;SDS011;6220;53.580;9.758;2023-03-23T14:56:17;5.23;;;2.07;;
12312;SDS011;6220;53.580;9.758;2023-03-23T14:58:48;4.83;;;1.90;;
12312;SDS011;6220;53.580;9.758;2023-03-23T15:01:17;6.03;;;1.73;;
12312;SDS011;6220;53.580;9.758;2023-03-23T15:03:55;7.17;;;3.60;;
12312;SDS011;6220;53.580;9.758;2023-03-23T15:06:23;5.63;;;2.00;;
12312;SDS011;6220;53.580;9.758;2023-03-23T15:08:50;4.67;;;2.20;;
12312;SDS011;6220;53.580;9.758;2023-03-23T15:13:53;5.90;;;2.20;;
12312;SDS011;6220;53.580;9.758;2023-03-23T15:16:23;4.17;;;1.87;;
12312;SDS011;6220;53.580;9.758;2023-03-23T15:18:53;4.97;;;1.80;;
12312;SDS011;6220;53.580;9.758;2023-03-23T15:21:22;4.97;;;2.13;;
12312;SDS011;6220;53.580;9.758;2023-03-23T15:23:59;3.13;;;1.83;;
12312;SDS011;6220;53.580;9.758;2023-03-23T15:26:27;6.20;;;2.57;;
12312;SDS011;6220;53.580;9.758;2023-03-23T15:29:10;5.83;;;2.33;;
12312;SDS011;6220;53.580;9.758;2023-03-23T15:31:47;7.10;;;2.10;;
12312;SDS011;6220;53.580;9.758;2023-03-23T15:34:47;5.97;;;2.40;;
12312;SDS011;6220;53.580;9.758;2023-03-23T15:37:18;5.43;;;2.20;;
12312;SDS011;6220;53.580;9.758;2023-03-23T15:39:46;7.80;;;2.30;;
12312;SDS011;6220;53.580;9.758;2023-03-23T15:42:25;5.23;;;2.77;;
12312;SDS011;6220;53.580;9.758;2023-03-23T15:45:01;5.33;;;2.30;;
12312;SDS011;6220;53.580;9.758;2023-03-23T15:47:34;6.23;;;2.70;;
12312;SDS011;6220;53.580;9.758;2023-03-23T15:50:09;6.20;;;2.80;;
12312;SDS011;6220;53.580;9.758;2023-03-23T15:52:40;8.00;;;2.57;;
12312;SDS011;6220;53.580;9.758;2023-03-23T15:57:56;5.13;;;2.20;;
12312;SDS011;6220;53.580;9.758;2023-03-23T16:00:23;6.53;;;2.73;;
12312;SDS011;6220;53.580;9.758;2023-03-23T16:02:52;5.13;;;2.70;;
12312;SDS011;6220;53.580;9.758;2023-03-23T16:05:19;11.03;;;3.47;;
12312;SDS011;6220;53.580;9.758;2023-03-23T16:07:44;5.07;;;3.13;;
12312;SDS011;6220;53.580;9.758;2023-03-23T16:10:14;8.40;;;3.33;;
12312;SDS011;6220;53.580;9.758;2023-03-23T16:12:41;5.77;;;2.07;;
12312;SDS011;6220;53.580;9.758;2023-03-23T16:15:06;5.43;;;2.13;;
12312;SDS011;6220;53.580;9.758;2023-03-23T16:17:33;7.67;;;2.67;;
12312;SDS011;6220;53.580;9.758;2023-03-23T16:19:58;8.87;;;3.03;;
12312;SDS011;6220;53.580;9.758;2023-03-23T16:22:24;5.20;;;2.77;;
12312;SDS011;6220;53.580;9.758;2023-03-23T16:24:49;7.70;;;2.60;;
12312;SDS011;6220;53.580;9.758;2023-03-23T16:27:15;8.67;;;2.70;;
12312;SDS011;6220;53.580;9.758;2023-03-23T16:29:41;6.63;;;2.60;;
12312;SDS011;6220;53.580;9.758;2023-03-23T16:32:06;8.40;;;2.80;;
12312;SDS011;6220;53.580;9.758;2023-03-23T16:34:31;5.33;;;2.53;;
12312;SDS011;6220;53.580;9.758;2023-03-23T16:37:00;9.30;;;3.00;;
12312;SDS011;6220;53.580;9.758;2023-03-23T16:39:26;6.27;;;2.57;;
12312;SDS011;6220;53.580;9.758;2023-03-23T16:41:51;7.73;;;2.77;;
12312;SDS011;6220;53.580;9.758;2023-03-23T16:44:17;8.30;;;3.07;;
12312;SDS011;6220;53.580;9.758;2023-03-23T16:46:42;8.43;;;2.70;;
12312;SDS011;6220;53.580;9.758;2023-03-23T16:49:07;6.17;;;2.57;;
12312;SDS011;6220;53.580;9.758;2023-03-23T16:51:33;9.87;;;2.37;;
12312;SDS011;6220;53.580;9.758;2023-03-23T16:53:58;8.20;;;2.60;;
12312;SDS011;6220;53.580;9.758;2023-03-23T16:56:23;7.03;;;2.57;;
12312;SDS011;6220;53.580;9.758;2023-03-23T16:58:49;6.50;;;2.57;;